createdAt,value
2018-07-10T00:00:01.770Z,19.67
2018-07-10T00:00:05.987Z,19.67
2018-07-10T00:00:10.091Z,19.75
2018-07-10T00:00:14.400Z,19.78
2018-07-10T00:00:18.614Z,19.72
2018-07-10T00:00:22.935Z,19.68
2018-07-10T00:00:27.250Z,19.64
2018-07-10T00:00:31.571Z,19.65
2018-07-10T00:00:35.804Z,19.68
2018-07-10T00:00:40.017Z,19.7
2018-07-10T00:00:44.239Z,19.68
2018-07-10T00:00:48.449Z,19.78
2018-07-10T00:00:52.443Z,19.7
2018-07-10T00:00:56.558Z,19.67
2018-07-10T00:01:00.795Z,19.67
2018-07-10T00:01:04.837Z,19.7
2018-07-10T00:01:09.046Z,19.68
2018-07-10T00:01:13.151Z,19.62
2018-07-10T00:01:17.358Z,19.67
2018-07-10T00:01:21.563Z,19.7
2018-07-10T00:01:25.558Z,19.71
2018-07-10T00:01:29.875Z,19.7
2018-07-10T00:01:34.184Z,19.71
2018-07-10T00:01:38.392Z,19.67
2018-07-10T00:01:42.276Z,19.68
2018-07-10T00:01:46.485Z,19.67
2018-07-10T00:01:50.691Z,19.64
2018-07-10T00:01:54.799Z,19.75
2018-07-10T00:01:59.001Z,19.7
2018-07-10T00:02:03.106Z,19.65
2018-07-10T00:02:07.100Z,19.65
2018-07-10T00:02:11.411Z,19.67
2018-07-10T00:02:15.724Z,19.71
2018-07-10T00:02:19.922Z,19.64
2018-07-10T00:02:24.024Z,19.67
2018-07-10T00:02:28.144Z,19.7
2018-07-10T00:02:32.464Z,19.7
2018-07-10T00:02:36.833Z,19.64
2018-07-10T00:02:41.141Z,19.7
2018-07-10T00:02:45.470Z,19.64
2018-07-10T00:02:49.559Z,19.68
2018-07-10T00:02:53.551Z,19.7
2018-07-10T00:02:57.755Z,19.7
2018-07-10T00:03:01.962Z,19.62
2018-07-10T00:03:05.953Z,19.72
2018-07-10T00:03:10.051Z,19.71
2018-07-10T00:03:14.414Z,19.65
2018-07-10T00:03:18.738Z,19.68
2018-07-10T00:03:22.940Z,19.7
2018-07-10T00:03:27.140Z,19.64
2018-07-10T00:03:31.345Z,19.64
2018-07-10T00:03:35.549Z,19.67
2018-07-10T00:03:39.642Z,19.67
2018-07-10T00:03:43.844Z,19.7
2018-07-10T00:03:47.943Z,19.64
2018-07-10T00:03:52.142Z,19.67
2018-07-10T00:03:56.232Z,19.71
2018-07-10T00:04:00.551Z,19.7
2018-07-10T00:04:04.759Z,19.64
2018-07-10T00:04:08.968Z,19.7
2018-07-10T00:04:12.956Z,19.67
2018-07-10T00:04:17.167Z,19.68
2018-07-10T00:04:21.490Z,19.65
2018-07-10T00:04:25.477Z,19.71
2018-07-10T00:04:29.478Z,19.65
2018-07-10T00:04:33.476Z,19.65
2018-07-10T00:04:37.795Z,19.67
2018-07-10T00:04:41.998Z,19.67
2018-07-10T00:04:46.312Z,19.65
2018-07-10T00:04:50.518Z,19.67
2018-07-10T00:04:54.720Z,19.64
2018-07-10T00:04:58.932Z,19.67
2018-07-10T00:05:03.257Z,19.62
2018-07-10T00:05:07.359Z,19.62
2018-07-10T00:05:11.667Z,19.52
2018-07-10T00:05:15.986Z,19.68
2018-07-10T00:05:20.187Z,19.64
2018-07-10T00:05:24.394Z,19.67
2018-07-10T00:05:28.601Z,19.68
2018-07-10T00:05:32.908Z,19.64
2018-07-10T00:05:37.113Z,19.68
2018-07-10T00:05:40.890Z,19.55
2018-07-10T00:05:44.986Z,19.65
2018-07-10T00:05:49.084Z,19.6
2018-07-10T00:05:53.281Z,19.58
2018-07-10T00:05:57.486Z,19.57
2018-07-10T00:06:01.681Z,19.67
2018-07-10T00:06:05.780Z,19.67
2018-07-10T00:06:09.989Z,19.7
2018-07-10T00:06:13.982Z,19.6
2018-07-10T00:06:18.187Z,19.64
2018-07-10T00:06:22.398Z,19.65
2018-07-10T00:06:26.496Z,19.62
2018-07-10T00:06:30.860Z,19.67
2018-07-10T00:06:35.187Z,19.7
2018-07-10T00:06:39.391Z,19.67
2018-07-10T00:06:43.600Z,19.55
2018-07-10T00:06:47.697Z,19.67
2018-07-10T00:06:51.906Z,19.62
2018-07-10T00:06:56.010Z,19.55
2018-07-10T00:07:00.219Z,19.53
2018-07-10T00:07:04.208Z,19.62
2018-07-10T00:07:08.304Z,19.55
2018-07-10T00:07:12.510Z,19.67
2018-07-10T00:07:16.727Z,19.68
2018-07-10T00:07:21.042Z,19.57
2018-07-10T00:07:25.242Z,19.57
2018-07-10T00:07:29.440Z,19.64
2018-07-10T00:07:33.753Z,19.58
2018-07-10T00:07:38.062Z,19.58
2018-07-10T00:07:42.053Z,19.57
2018-07-10T00:07:46.358Z,19.64
2018-07-10T00:07:50.588Z,19.55
2018-07-10T00:07:54.894Z,19.65
2018-07-10T00:07:59.276Z,19.57
2018-07-10T00:08:03.469Z,19.55
2018-07-10T00:08:07.834Z,19.61
2018-07-10T00:08:12.586Z,19.58
2018-07-10T00:08:17.098Z,19.53
2018-07-10T00:08:21.301Z,19.64
2018-07-10T00:08:25.395Z,19.57
2018-07-10T00:08:29.611Z,19.55
2018-07-10T00:08:33.711Z,19.57
2018-07-10T00:08:37.914Z,19.64
2018-07-10T00:08:42.116Z,19.65
2018-07-10T00:08:46.327Z,19.55
2018-07-10T00:08:50.317Z,19.64
2018-07-10T00:08:54.529Z,19.65
2018-07-10T00:08:58.836Z,19.6
2018-07-10T00:09:03.062Z,19.55
2018-07-10T00:09:07.265Z,19.58
2018-07-10T00:09:11.470Z,19.58
2018-07-10T00:09:15.776Z,19.53
2018-07-10T00:09:20.094Z,19.58
2018-07-10T00:09:24.409Z,19.58
2018-07-10T00:09:28.316Z,19.55
2018-07-10T00:09:32.414Z,19.52
2018-07-10T00:09:36.616Z,19.64
2018-07-10T00:09:40.817Z,19.53
2018-07-10T00:09:45.131Z,19.57
2018-07-10T00:09:49.334Z,19.64
2018-07-10T00:09:53.568Z,19.57
2018-07-10T00:09:57.678Z,19.53
2018-07-10T00:10:01.780Z,19.55
2018-07-10T00:10:05.880Z,19.62
2018-07-10T00:10:10.191Z,19.57
2018-07-10T00:10:14.295Z,19.53
2018-07-10T00:10:18.502Z,19.5
2018-07-10T00:10:22.825Z,19.57
2018-07-10T00:10:27.140Z,19.6
2018-07-10T00:10:31.455Z,19.6
2018-07-10T00:10:35.661Z,19.53
2018-07-10T00:10:39.765Z,19.53
2018-07-10T00:10:43.865Z,19.53
2018-07-10T00:10:48.070Z,19.53
2018-07-10T00:10:52.376Z,19.57
2018-07-10T00:10:56.580Z,19.52
2018-07-10T00:11:00.579Z,19.64
2018-07-10T00:11:04.677Z,19.61
2018-07-10T00:11:08.774Z,19.53
2018-07-10T00:11:12.978Z,19.53
2018-07-10T00:11:17.289Z,19.65
2018-07-10T00:11:21.279Z,19.61
2018-07-10T00:11:25.650Z,19.53
2018-07-10T00:11:29.856Z,19.52
2018-07-10T00:11:34.066Z,19.53
2018-07-10T00:11:38.370Z,19.55
2018-07-10T00:11:42.678Z,19.57
2018-07-10T00:11:46.878Z,19.5
2018-07-10T00:11:51.188Z,19.55
2018-07-10T00:11:55.286Z,19.61
2018-07-10T00:11:59.494Z,19.64
2018-07-10T00:12:03.594Z,19.61
2018-07-10T00:12:07.796Z,19.52
2018-07-10T00:12:12.030Z,19.61
2018-07-10T00:12:16.482Z,19.58
2018-07-10T00:12:21.044Z,19.49
2018-07-10T00:12:25.770Z,19.55
2018-07-10T00:12:29.983Z,19.53
2018-07-10T00:12:34.186Z,19.52
2018-07-10T00:12:38.176Z,19.55
2018-07-10T00:12:42.164Z,19.6
2018-07-10T00:12:46.368Z,19.61
2018-07-10T00:12:50.465Z,19.62
2018-07-10T00:12:54.772Z,19.5
2018-07-10T00:12:58.760Z,19.62
2018-07-10T00:13:02.973Z,19.64
2018-07-10T00:13:07.069Z,19.61
2018-07-10T00:13:11.284Z,19.64
2018-07-10T00:13:15.428Z,19.61
2018-07-10T00:13:19.532Z,19.53
2018-07-10T00:13:23.630Z,19.58
2018-07-10T00:13:27.828Z,19.55
2018-07-10T00:13:32.033Z,19.62
2018-07-10T00:13:36.347Z,19.49
2018-07-10T00:13:40.651Z,19.55
2018-07-10T00:13:45.001Z,19.53
2018-07-10T00:13:49.208Z,19.53
2018-07-10T00:13:53.416Z,19.55
2018-07-10T00:13:57.521Z,19.62
2018-07-10T00:14:01.831Z,19.6
2018-07-10T00:14:06.144Z,19.53
2018-07-10T00:14:10.354Z,19.55
2018-07-10T00:14:14.675Z,19.58
2018-07-10T00:14:19.035Z,19.55
2018-07-10T00:14:23.349Z,19.57
2018-07-10T00:14:27.343Z,19.55
2018-07-10T00:14:31.555Z,19.61
2018-07-10T00:14:35.780Z,19.52
2018-07-10T00:14:39.999Z,19.5
2018-07-10T00:14:44.354Z,19.55
2018-07-10T00:14:48.668Z,19.58
2018-07-10T00:14:52.763Z,19.55
2018-07-10T00:14:56.930Z,19.57
2018-07-10T00:15:01.249Z,19.5
2018-07-10T00:15:05.245Z,19.57
2018-07-10T00:15:09.565Z,19.55
2018-07-10T00:15:13.661Z,19.55
2018-07-10T00:15:17.971Z,19.55
2018-07-10T00:15:22.073Z,19.53
2018-07-10T00:15:26.281Z,19.57
2018-07-10T00:15:30.489Z,19.5
2018-07-10T00:15:34.797Z,19.53
2018-07-10T00:15:39.119Z,19.57
2018-07-10T00:15:43.332Z,19.53
2018-07-10T00:15:47.643Z,19.57
2018-07-10T00:15:51.970Z,19.57
2018-07-10T00:15:56.171Z,19.6
2018-07-10T00:16:00.481Z,19.57
2018-07-10T00:16:04.688Z,19.55
2018-07-10T00:16:08.893Z,19.57
2018-07-10T00:16:13.100Z,19.53
2018-07-10T00:16:17.216Z,19.58
2018-07-10T00:16:21.312Z,19.53
2018-07-10T00:16:25.412Z,19.6
2018-07-10T00:16:29.611Z,19.5
2018-07-10T00:16:33.919Z,19.55
2018-07-10T00:16:38.269Z,19.58
2018-07-10T00:16:42.486Z,19.53
2018-07-10T00:16:46.801Z,19.55
2018-07-10T00:16:51.000Z,19.53
2018-07-10T00:16:55.203Z,19.53
2018-07-10T00:16:59.528Z,19.6
2018-07-10T00:17:03.413Z,19.6
2018-07-10T00:17:07.405Z,19.55
2018-07-10T00:17:11.293Z,19.57
2018-07-10T00:17:15.392Z,19.6
2018-07-10T00:17:19.700Z,19.49
2018-07-10T00:17:23.916Z,19.52
2018-07-10T00:17:27.903Z,19.46
2018-07-10T00:17:32.209Z,19.52
2018-07-10T00:17:36.411Z,19.55
2018-07-10T00:17:40.611Z,19.55
2018-07-10T00:17:44.712Z,19.5
2018-07-10T00:17:48.698Z,19.53
2018-07-10T00:17:52.916Z,19.49
2018-07-10T00:17:57.010Z,19.47
2018-07-10T00:18:01.214Z,19.57
2018-07-10T00:18:05.425Z,19.55
2018-07-10T00:18:09.744Z,19.49
2018-07-10T00:18:13.955Z,19.58
2018-07-10T00:18:18.051Z,19.53
2018-07-10T00:18:22.274Z,19.5
2018-07-10T00:18:26.585Z,19.5
2018-07-10T00:18:30.686Z,19.49
2018-07-10T00:18:35.004Z,19.52
2018-07-10T00:18:39.211Z,19.55
2018-07-10T00:18:43.304Z,19.55
2018-07-10T00:18:47.292Z,19.5
2018-07-10T00:18:51.493Z,19.49
2018-07-10T00:18:55.608Z,19.52
2018-07-10T00:18:59.807Z,19.53
2018-07-10T00:19:03.907Z,19.5
2018-07-10T00:19:08.109Z,19.5
2018-07-10T00:19:12.416Z,19.46
2018-07-10T00:19:16.618Z,19.45
2018-07-10T00:19:20.929Z,19.46
2018-07-10T00:19:25.234Z,19.49
2018-07-10T00:19:29.332Z,19.43
2018-07-10T00:19:33.320Z,19.47
2018-07-10T00:19:37.623Z,19.49
2018-07-10T00:19:41.823Z,19.47
2018-07-10T00:19:46.029Z,19.45
2018-07-10T00:19:50.260Z,19.57
2018-07-10T00:19:54.460Z,19.53
2018-07-10T00:19:58.771Z,19.47
2018-07-10T00:20:02.976Z,19.53
2018-07-10T00:20:06.969Z,19.49
2018-07-10T00:20:11.064Z,19.47
2018-07-10T00:20:15.161Z,19.5
2018-07-10T00:20:19.478Z,19.5
2018-07-10T00:20:23.575Z,19.45
2018-07-10T00:20:27.780Z,19.42
2018-07-10T00:20:32.093Z,19.42
2018-07-10T00:20:36.411Z,19.42
2018-07-10T00:20:40.618Z,19.38
2018-07-10T00:20:44.927Z,19.45
2018-07-10T00:20:49.139Z,19.4
2018-07-10T00:20:53.339Z,19.47
2018-07-10T00:20:57.656Z,19.45
2018-07-10T00:21:01.869Z,19.42
2018-07-10T00:21:06.081Z,19.4
2018-07-10T00:21:10.288Z,19.49
2018-07-10T00:21:14.389Z,19.42
2018-07-10T00:21:18.702Z,19.4
2018-07-10T00:21:22.906Z,19.46
2018-07-10T00:21:27.219Z,19.43
2018-07-10T00:21:31.322Z,19.46
2018-07-10T00:21:35.639Z,19.49
2018-07-10T00:21:39.627Z,19.42
2018-07-10T00:21:43.890Z,19.4
2018-07-10T00:21:48.096Z,19.39
2018-07-10T00:21:52.299Z,19.46
2018-07-10T00:21:56.505Z,19.4
2018-07-10T00:22:00.496Z,19.39
2018-07-10T00:22:04.706Z,19.42
2018-07-10T00:22:08.699Z,19.35
2018-07-10T00:22:12.906Z,19.42
2018-07-10T00:22:17.116Z,19.34
2018-07-10T00:22:21.328Z,19.4
2018-07-10T00:22:25.646Z,19.43
2018-07-10T00:22:29.960Z,19.46
2018-07-10T00:22:34.161Z,19.42
2018-07-10T00:22:38.364Z,19.45
2018-07-10T00:22:42.675Z,19.42
2018-07-10T00:22:46.879Z,19.45
2018-07-10T00:22:51.192Z,19.43
2018-07-10T00:22:55.290Z,19.49
2018-07-10T00:22:59.500Z,19.46
2018-07-10T00:23:03.701Z,19.45
2018-07-10T00:23:07.908Z,19.47
2018-07-10T00:23:12.009Z,19.42
2018-07-10T00:23:16.324Z,19.42
2018-07-10T00:23:20.525Z,19.42
2018-07-10T00:23:24.833Z,19.38
2018-07-10T00:23:29.036Z,19.42
2018-07-10T00:23:33.130Z,19.42
2018-07-10T00:23:37.333Z,19.45
2018-07-10T00:23:41.216Z,19.45
2018-07-10T00:23:45.521Z,19.4
2018-07-10T00:23:49.724Z,19.4
2018-07-10T00:23:53.827Z,19.49
2018-07-10T00:23:58.029Z,19.43
2018-07-10T00:24:02.342Z,19.45
2018-07-10T00:24:06.546Z,19.39
2018-07-10T00:24:10.540Z,19.43
2018-07-10T00:24:14.847Z,19.43
2018-07-10T00:24:18.939Z,19.4
2018-07-10T00:24:23.143Z,19.39
2018-07-10T00:24:27.238Z,19.45
2018-07-10T00:24:31.449Z,19.45
2018-07-10T00:24:35.656Z,19.34
2018-07-10T00:24:39.972Z,19.45
2018-07-10T00:24:44.275Z,19.35
2018-07-10T00:24:48.590Z,19.35
2018-07-10T00:24:52.793Z,19.45
2018-07-10T00:24:57.047Z,19.4
2018-07-10T00:25:01.030Z,19.34
2018-07-10T00:25:05.240Z,19.35
2018-07-10T00:25:09.441Z,19.31
2018-07-10T00:25:13.537Z,19.38
2018-07-10T00:25:17.743Z,19.4
2018-07-10T00:25:21.945Z,19.35
2018-07-10T00:25:26.143Z,19.39
2018-07-10T00:25:30.463Z,19.38
2018-07-10T00:25:34.784Z,19.32
2018-07-10T00:25:38.988Z,19.38
2018-07-10T00:25:43.191Z,19.38
2018-07-10T00:25:47.286Z,19.34
2018-07-10T00:25:51.615Z,19.34
2018-07-10T00:25:55.918Z,19.34
2018-07-10T00:26:00.129Z,19.4
2018-07-10T00:26:04.224Z,19.27
2018-07-10T00:26:08.431Z,19.42
2018-07-10T00:26:12.636Z,19.35
2018-07-10T00:26:16.734Z,19.35
2018-07-10T00:26:20.830Z,19.32
2018-07-10T00:26:25.144Z,19.31
2018-07-10T00:26:29.258Z,19.39
2018-07-10T00:26:33.465Z,19.32
2018-07-10T00:26:37.673Z,19.35
2018-07-10T00:26:41.870Z,19.35
2018-07-10T00:26:46.075Z,19.4
2018-07-10T00:26:50.171Z,19.32
2018-07-10T00:26:54.374Z,19.31
2018-07-10T00:26:58.593Z,19.32
2018-07-10T00:27:02.801Z,19.32
2018-07-10T00:27:06.896Z,19.32
2018-07-10T00:27:11.240Z,19.34
2018-07-10T00:27:15.337Z,19.34
2018-07-10T00:27:19.545Z,19.32
2018-07-10T00:27:23.753Z,19.34
2018-07-10T00:27:28.064Z,19.4
2018-07-10T00:27:32.263Z,19.35
2018-07-10T00:27:36.570Z,19.28
2018-07-10T00:27:40.663Z,19.31
2018-07-10T00:27:44.965Z,19.3
2018-07-10T00:27:49.163Z,19.31
2018-07-10T00:27:53.376Z,19.28
2018-07-10T00:27:57.685Z,19.34
2018-07-10T00:28:01.888Z,19.35
2018-07-10T00:28:05.987Z,19.25
2018-07-10T00:28:10.210Z,19.25
2018-07-10T00:28:14.411Z,19.28
2018-07-10T00:28:18.721Z,19.25
2018-07-10T00:28:23.045Z,19.25
2018-07-10T00:28:27.357Z,19.3
2018-07-10T00:28:31.349Z,19.25
2018-07-10T00:28:35.672Z,19.24
2018-07-10T00:28:39.981Z,19.24
2018-07-10T00:28:44.186Z,19.3
2018-07-10T00:28:48.287Z,19.28
2018-07-10T00:28:52.489Z,19.27
2018-07-10T00:28:56.369Z,19.24
2018-07-10T00:29:00.566Z,19.24
2018-07-10T00:29:04.659Z,19.24
2018-07-10T00:29:08.873Z,19.25
2018-07-10T00:29:13.074Z,19.25
2018-07-10T00:29:17.384Z,19.27
2018-07-10T00:29:21.589Z,19.3
2018-07-10T00:29:25.689Z,19.23
2018-07-10T00:29:29.891Z,19.2
2018-07-10T00:29:34.096Z,19.23
2018-07-10T00:29:38.405Z,19.28
2018-07-10T00:29:42.609Z,19.15
2018-07-10T00:29:46.808Z,19.27
2018-07-10T00:29:51.019Z,19.23
2018-07-10T00:29:55.139Z,19.17
2018-07-10T00:29:59.349Z,19.27
2018-07-10T00:30:03.716Z,19.16
2018-07-10T00:30:07.703Z,19.17
2018-07-10T00:30:11.908Z,19.13
2018-07-10T00:30:16.114Z,19.21
2018-07-10T00:30:20.203Z,19.15
2018-07-10T00:30:24.303Z,19.15
2018-07-10T00:30:28.614Z,19.21
2018-07-10T00:30:32.815Z,19.15
2018-07-10T00:30:36.914Z,19.12
2018-07-10T00:30:41.229Z,19.2
2018-07-10T00:30:45.427Z,19.2
2018-07-10T00:30:49.552Z,19.13
2018-07-10T00:30:53.646Z,19.2
2018-07-10T00:30:57.637Z,19.16
2018-07-10T00:31:01.951Z,19.17
2018-07-10T00:31:06.054Z,19.25
2018-07-10T00:31:10.255Z,19.15
2018-07-10T00:31:14.353Z,19.16
2018-07-10T00:31:18.567Z,19.2
2018-07-10T00:31:22.672Z,19.23
2018-07-10T00:31:26.876Z,19.15
2018-07-10T00:31:31.198Z,19.17
2018-07-10T00:31:35.191Z,19.21
2018-07-10T00:31:39.447Z,19.13
2018-07-10T00:31:43.753Z,19.17
2018-07-10T00:31:47.958Z,19.16
2018-07-10T00:31:52.275Z,19.23
2018-07-10T00:31:56.369Z,19.24
2018-07-10T00:32:00.574Z,19.23
2018-07-10T00:32:04.787Z,19.13
2018-07-10T00:32:08.987Z,19.17
2018-07-10T00:32:13.183Z,19.25
2018-07-10T00:32:17.385Z,19.15
2018-07-10T00:32:21.605Z,19.2
2018-07-10T00:32:25.702Z,19.2
2018-07-10T00:32:30.009Z,19.2
2018-07-10T00:32:34.226Z,19.12
2018-07-10T00:32:38.330Z,19.13
2018-07-10T00:32:42.431Z,19.13
2018-07-10T00:32:46.635Z,19.16
2018-07-10T00:32:50.948Z,19.21
2018-07-10T00:32:54.935Z,19.1
2018-07-10T00:32:59.258Z,19.12
2018-07-10T00:33:03.570Z,19.1
2018-07-10T00:33:07.671Z,19.12
2018-07-10T00:33:11.875Z,19.07
2018-07-10T00:33:16.074Z,19.12
2018-07-10T00:33:20.279Z,19.12
2018-07-10T00:33:24.590Z,19.1
2018-07-10T00:33:28.905Z,19.16
2018-07-10T00:33:33.206Z,19.13
2018-07-10T00:33:37.193Z,19.12
2018-07-10T00:33:41.402Z,19.1
2018-07-10T00:33:45.608Z,19.1
2018-07-10T00:33:49.919Z,19.09
2018-07-10T00:33:54.229Z,19.1
2018-07-10T00:33:58.540Z,19.12
2018-07-10T00:34:02.752Z,19.13
2018-07-10T00:34:07.058Z,19.12
2018-07-10T00:34:11.148Z,19.15
2018-07-10T00:34:15.455Z,19.07
2018-07-10T00:34:19.761Z,19.09
2018-07-10T00:34:24.072Z,19.13
2018-07-10T00:34:28.069Z,19.07
2018-07-10T00:34:32.270Z,19.12
2018-07-10T00:34:36.581Z,19.02
2018-07-10T00:34:40.784Z,19.09
2018-07-10T00:34:44.984Z,19.02
2018-07-10T00:34:49.291Z,19.01
2018-07-10T00:34:53.401Z,18.97
2018-07-10T00:34:57.501Z,19.01
2018-07-10T00:35:01.592Z,19.09
2018-07-10T00:35:05.800Z,19.05
2018-07-10T00:35:10.008Z,19.05
2018-07-10T00:35:14.325Z,19.01
2018-07-10T00:35:18.531Z,19.12
2018-07-10T00:35:22.835Z,19.05
2018-07-10T00:35:27.203Z,19.02
2018-07-10T00:35:31.506Z,18.99
2018-07-10T00:35:35.709Z,19.07
2018-07-10T00:35:40.021Z,19.01
2018-07-10T00:35:44.148Z,19.06
2018-07-10T00:35:48.454Z,19.02
2018-07-10T00:35:52.761Z,18.99
2018-07-10T00:35:56.973Z,19.06
2018-07-10T00:36:01.279Z,19.01
2018-07-10T00:36:05.373Z,19.05
2018-07-10T00:36:09.470Z,19.01
2018-07-10T00:36:13.778Z,18.99
2018-07-10T00:36:17.978Z,19.02
2018-07-10T00:36:22.283Z,18.97
2018-07-10T00:36:26.596Z,19.1
2018-07-10T00:36:30.794Z,19.01
2018-07-10T00:36:35.120Z,19.07
2018-07-10T00:36:39.333Z,18.99
2018-07-10T00:36:43.713Z,18.94
2018-07-10T00:36:48.034Z,19.06
2018-07-10T00:36:52.344Z,19.05
2018-07-10T00:36:56.493Z,19.01
2018-07-10T00:37:00.694Z,19.01
2018-07-10T00:37:04.807Z,18.99
2018-07-10T00:37:09.026Z,19.12
2018-07-10T00:37:13.345Z,19.06
2018-07-10T00:37:17.654Z,19.07
2018-07-10T00:37:21.985Z,18.99
2018-07-10T00:37:26.221Z,19.07
2018-07-10T00:37:30.426Z,18.97
2018-07-10T00:37:34.637Z,19.06
2018-07-10T00:37:38.742Z,18.99
2018-07-10T00:37:42.947Z,19.01
2018-07-10T00:37:47.158Z,18.96
2018-07-10T00:37:51.466Z,18.97
2018-07-10T00:37:55.452Z,19.01
2018-07-10T00:37:59.440Z,18.97
2018-07-10T00:38:03.538Z,19.05
2018-07-10T00:38:07.637Z,18.94
2018-07-10T00:38:11.857Z,19.01
2018-07-10T00:38:16.093Z,19.01
2018-07-10T00:38:20.411Z,19.06
2018-07-10T00:38:24.627Z,18.97
2018-07-10T00:38:28.725Z,19.05
2018-07-10T00:38:32.927Z,18.96
2018-07-10T00:38:36.907Z,18.94
2018-07-10T00:38:41.108Z,19.05
2018-07-10T00:38:45.202Z,18.97
2018-07-10T00:38:49.400Z,18.97
2018-07-10T00:38:53.722Z,18.94
2018-07-10T00:38:57.937Z,19.06
2018-07-10T00:39:01.924Z,19.02
2018-07-10T00:39:06.236Z,18.94
2018-07-10T00:39:10.450Z,19.01
2018-07-10T00:39:14.653Z,18.93
2018-07-10T00:39:18.641Z,18.99
2018-07-10T00:39:22.631Z,19.02
2018-07-10T00:39:26.837Z,19.02
2018-07-10T00:39:31.149Z,18.94
2018-07-10T00:39:35.350Z,19.06
2018-07-10T00:39:39.563Z,19.07
2018-07-10T00:39:43.870Z,18.97
2018-07-10T00:39:48.078Z,18.96
2018-07-10T00:39:52.288Z,19.01
2018-07-10T00:39:56.502Z,18.97
2018-07-10T00:40:00.813Z,19.02
2018-07-10T00:40:05.024Z,19.05
2018-07-10T00:40:09.227Z,19.01
2018-07-10T00:40:13.429Z,18.96
2018-07-10T00:40:17.628Z,19.01
2018-07-10T00:40:21.611Z,19.02
2018-07-10T00:40:25.603Z,19.06
2018-07-10T00:40:29.907Z,18.99
2018-07-10T00:40:34.212Z,19.05
2018-07-10T00:40:38.307Z,18.96
2018-07-10T00:40:42.517Z,18.99
2018-07-10T00:40:46.609Z,19.01
2018-07-10T00:40:50.871Z,19.12
2018-07-10T00:40:54.865Z,19.01
2018-07-10T00:40:59.064Z,19.01
2018-07-10T00:41:03.388Z,19.05
2018-07-10T00:41:07.373Z,19.01
2018-07-10T00:41:11.687Z,18.96
2018-07-10T00:41:15.792Z,19.07
2018-07-10T00:41:20.094Z,18.99
2018-07-10T00:41:24.303Z,18.96
2018-07-10T00:41:28.610Z,18.99
2018-07-10T00:41:32.708Z,19.01
2018-07-10T00:41:36.920Z,19.05
2018-07-10T00:41:41.230Z,18.93
2018-07-10T00:41:45.433Z,18.99
2018-07-10T00:41:49.433Z,18.94
2018-07-10T00:41:53.642Z,19.01
2018-07-10T00:41:57.850Z,18.93
2018-07-10T00:42:02.182Z,19.09
2018-07-10T00:42:06.284Z,19.01
2018-07-10T00:42:10.592Z,19.06
2018-07-10T00:42:14.793Z,18.94
2018-07-10T00:42:18.894Z,18.96
2018-07-10T00:42:23.099Z,19.06
2018-07-10T00:42:27.089Z,19.02
2018-07-10T00:42:31.291Z,19.01
2018-07-10T00:42:35.499Z,18.97
2018-07-10T00:42:39.699Z,19.05
2018-07-10T00:42:44.004Z,19.01
2018-07-10T00:42:48.099Z,19.05
2018-07-10T00:42:52.299Z,19.01
2018-07-10T00:42:56.612Z,19.06
2018-07-10T00:43:00.925Z,18.96
2018-07-10T00:43:05.136Z,18.93
2018-07-10T00:43:09.334Z,19.09
2018-07-10T00:43:13.649Z,19.01
2018-07-10T00:43:17.745Z,18.99
2018-07-10T00:43:21.960Z,18.96
2018-07-10T00:43:25.950Z,18.96
2018-07-10T00:43:30.147Z,19.06
2018-07-10T00:43:34.371Z,18.97
2018-07-10T00:43:38.590Z,19.07
2018-07-10T00:43:42.685Z,19.06
2018-07-10T00:43:46.992Z,19.01
2018-07-10T00:43:51.091Z,18.99
2018-07-10T00:43:55.183Z,19.02
2018-07-10T00:43:59.280Z,19.07
2018-07-10T00:44:03.594Z,19.05
2018-07-10T00:44:07.803Z,18.99
2018-07-10T00:44:11.903Z,18.97
2018-07-10T00:44:16.208Z,18.94
2018-07-10T00:44:20.521Z,19.01
2018-07-10T00:44:24.669Z,19.02
2018-07-10T00:44:28.772Z,18.96
2018-07-10T00:44:32.864Z,18.99
2018-07-10T00:44:37.079Z,19.07
2018-07-10T00:44:41.177Z,18.99
2018-07-10T00:44:45.493Z,18.94
2018-07-10T00:44:49.800Z,19.02
2018-07-10T00:44:54.108Z,18.96
2018-07-10T00:44:58.411Z,19.09
2018-07-10T00:45:02.618Z,18.96
2018-07-10T00:45:06.716Z,19.06
2018-07-10T00:45:10.829Z,18.99
2018-07-10T00:45:15.145Z,18.99
2018-07-10T00:45:19.453Z,18.97
2018-07-10T00:45:23.546Z,19.06
2018-07-10T00:45:27.648Z,19.06
2018-07-10T00:45:31.752Z,19.05
2018-07-10T00:45:35.958Z,18.99
2018-07-10T00:45:40.160Z,19.01
2018-07-10T00:45:44.417Z,18.99
2018-07-10T00:45:48.733Z,18.97
2018-07-10T00:45:52.935Z,19.01
2018-07-10T00:45:57.134Z,18.96
2018-07-10T00:46:01.336Z,19.02
2018-07-10T00:46:05.436Z,18.99
2018-07-10T00:46:09.540Z,19.05
2018-07-10T00:46:13.859Z,19.02
2018-07-10T00:46:18.165Z,18.96
2018-07-10T00:46:22.476Z,19.06
2018-07-10T00:46:26.782Z,19.02
2018-07-10T00:46:31.088Z,19.06
2018-07-10T00:46:35.189Z,19.05
2018-07-10T00:46:39.502Z,19.05
2018-07-10T00:46:43.700Z,18.96
2018-07-10T00:46:48.009Z,18.94
2018-07-10T00:46:52.217Z,19.07
2018-07-10T00:46:56.532Z,18.91
2018-07-10T00:47:00.630Z,18.96
2018-07-10T00:47:04.517Z,19.09
2018-07-10T00:47:08.724Z,18.96
2018-07-10T00:47:12.923Z,19.07
2018-07-10T00:47:17.251Z,18.94
2018-07-10T00:47:21.451Z,19.02
2018-07-10T00:47:25.655Z,19.02
2018-07-10T00:47:29.641Z,19.05
2018-07-10T00:47:33.843Z,19.07
2018-07-10T00:47:38.055Z,19.01
2018-07-10T00:47:42.251Z,19.06
2018-07-10T00:47:46.353Z,19.05
2018-07-10T00:47:50.455Z,18.96
2018-07-10T00:47:54.809Z,18.9
2018-07-10T00:47:58.910Z,18.96
2018-07-10T00:48:03.110Z,19.06
2018-07-10T00:48:07.317Z,18.99
2018-07-10T00:48:11.522Z,19.01
2018-07-10T00:48:15.834Z,18.96
2018-07-10T00:48:20.139Z,19.09
2018-07-10T00:48:24.231Z,19.02
2018-07-10T00:48:28.216Z,18.99
2018-07-10T00:48:32.522Z,19.09
2018-07-10T00:48:36.834Z,18.99
2018-07-10T00:48:41.052Z,18.94
2018-07-10T00:48:45.255Z,18.94
2018-07-10T00:48:49.454Z,18.96
2018-07-10T00:48:53.695Z,19.05
2018-07-10T00:48:57.896Z,18.99
2018-07-10T00:49:02.174Z,18.96
2018-07-10T00:49:06.288Z,18.99
2018-07-10T00:49:10.498Z,19.05
2018-07-10T00:49:14.827Z,19.01
2018-07-10T00:49:19.145Z,18.94
2018-07-10T00:49:23.450Z,18.94
2018-07-10T00:49:27.333Z,19.01
2018-07-10T00:49:31.660Z,19.06
2018-07-10T00:49:35.972Z,18.94
2018-07-10T00:49:40.176Z,18.99
2018-07-10T00:49:44.280Z,18.96
2018-07-10T00:49:48.589Z,19.06
2018-07-10T00:49:52.794Z,18.99
2018-07-10T00:49:57.006Z,19.01
2018-07-10T00:50:01.218Z,19.06
2018-07-10T00:50:05.471Z,19.01
2018-07-10T00:50:09.563Z,18.99
2018-07-10T00:50:13.764Z,19.01
2018-07-10T00:50:17.972Z,18.94
2018-07-10T00:50:22.281Z,18.97
2018-07-10T00:50:26.585Z,19.05
2018-07-10T00:50:30.896Z,19.01
2018-07-10T00:50:35.202Z,19.02
2018-07-10T00:50:39.299Z,18.96
2018-07-10T00:50:43.614Z,18.99
2018-07-10T00:50:47.919Z,19.01
2018-07-10T00:50:52.228Z,18.91
2018-07-10T00:50:56.314Z,18.96
2018-07-10T00:51:32.617Z,19.02
2018-07-10T00:51:36.812Z,18.94
2018-07-10T00:51:41.018Z,18.99
2018-07-10T00:51:45.391Z,18.99
2018-07-10T00:51:49.703Z,18.99
2018-07-10T00:51:53.692Z,19.01
2018-07-10T00:51:58.005Z,18.96
2018-07-10T00:52:02.107Z,19.05
2018-07-10T00:52:06.203Z,18.97
2018-07-10T00:52:10.521Z,18.96
2018-07-10T00:52:14.622Z,19.05
2018-07-10T00:52:18.730Z,19.01
2018-07-10T00:52:23.033Z,19.01
2018-07-10T00:52:27.344Z,18.96
2018-07-10T00:52:31.656Z,18.97
2018-07-10T00:52:35.766Z,19.06
2018-07-10T00:52:40.071Z,18.97
2018-07-10T00:52:44.378Z,19.05
2018-07-10T00:52:48.583Z,19.06
2018-07-10T00:52:52.896Z,19.02
2018-07-10T00:52:56.898Z,18.96
2018-07-10T00:53:01.095Z,19.02
2018-07-10T00:53:05.404Z,19.02
2018-07-10T00:53:09.598Z,19.02
2018-07-10T00:53:13.808Z,19.02
2018-07-10T00:53:18.016Z,18.96
2018-07-10T00:53:22.226Z,19.05
2018-07-10T00:53:26.427Z,19.01
2018-07-10T00:53:30.646Z,19.01
2018-07-10T00:53:34.750Z,19.02
2018-07-10T00:53:38.948Z,18.84
2018-07-10T00:53:43.151Z,18.96
2018-07-10T00:53:47.246Z,18.97
2018-07-10T00:53:51.452Z,18.96
2018-07-10T00:53:55.545Z,18.99
2018-07-10T00:53:59.755Z,19.02
2018-07-10T00:54:03.973Z,18.9
2018-07-10T00:54:08.081Z,19.01
2018-07-10T00:54:12.311Z,19.02
2018-07-10T00:54:16.511Z,18.97
2018-07-10T00:54:20.719Z,18.99
2018-07-10T00:54:24.922Z,18.96
2018-07-10T00:54:29.231Z,18.9
2018-07-10T00:54:33.353Z,19.05
2018-07-10T00:54:37.453Z,18.91
2018-07-10T00:54:41.556Z,19.02
2018-07-10T00:54:45.864Z,18.99
2018-07-10T00:54:49.967Z,18.99